sensor_id;sensor_type;location;lat;lon;timestamp;temperature;humidity
35531;DHT22;21637;53.352;-6.356;2023-02-02T00:00:43;9.10;99.90
35531;DHT22;21637;53.352;-6.356;2023-02-02T00:03:09;9.20;99.90
35531;DHT22;21637;53.352;-6.356;2023-02-02T00:05:35;9.10;99.90
35531;DHT22;21637;53.352;-6.356;2023-02-02T00:08:01;9.10;99.90
35531;DHT22;21637;53.352;-6.356;2023-02-02T00:10:26;9.10;99.90
35531;DHT22;21637;53.352;-6.356;2023-02-02T00:12:52;9.10;99.90
35531;DHT22;21637;53.352;-6.356;2023-02-02T00:15:18;9.20;99.90
35531;DHT22;21637;53.352;-6.356;2023-02-02T00:17:44;9.20;99.90
35531;DHT22;21637;53.352;-6.356;2023-02-02T00:20:10;9.20;99.90
35531;DHT22;21637;53.352;-6.356;2023-02-02T00:22:35;9.20;99.90
35531;DHT22;21637;53.352;-6.356;2023-02-02T00:25:01;9.20;99.90
35531;DHT22;21637;53.352;-6.356;2023-02-02T00:27:26;9.20;99.90
35531;DHT22;21637;53.352;-6.356;2023-02-02T00:29:52;9.30;99.90
35531;DHT22;21637;53.352;-6.356;2023-02-02T00:32:18;9.30;99.90
35531;DHT22;21637;53.352;-6.356;2023-02-02T00:34:44;9.30;99.90
35531;DHT22;21637;53.352;-6.356;2023-02-02T00:37:09;9.30;99.90
35531;DHT22;21637;53.352;-6.356;2023-02-02T00:39:35;9.30;99.90
35531;DHT22;21637;53.352;-6.356;2023-02-02T00:42:01;9.30;99.90
35531;DHT22;21637;53.352;-6.356;2023-02-02T00:44:26;9.30;99.90
35531;DHT22;21637;53.352;-6.356;2023-02-02T00:47:12;9.30;99.90
35531;DHT22;21637;53.352;-6.356;2023-02-02T00:49:38;9.30;99.90
35531;DHT22;21637;53.352;-6.356;2023-02-02T00:52:03;9.40;99.90
35531;DHT22;21637;53.352;-6.356;2023-02-02T00:54:29;9.40;99.90
35531;DHT22;21637;53.352;-6.356;2023-02-02T00:56:54;9.40;99.90
35531;DHT22;21637;53.352;-6.356;2023-02-02T00:59:20;9.40;99.90
35531;DHT22;21637;53.352;-6.356;2023-02-02T01:01:46;9.40;99.90
35531;DHT22;21637;53.352;-6.356;2023-02-02T01:04:11;9.40;99.90
35531;DHT22;21637;53.352;-6.356;2023-02-02T01:06:37;9.40;99.90
35531;DHT22;21637;53.352;-6.356;2023-02-02T01:09:02;9.40;99.90
35531;DHT22;21637;53.352;-6.356;2023-02-02T01:11:28;9.40;99.90
35531;DHT22;21637;53.352;-6.356;2023-02-02T01:13:55;9.40;99.90
35531;DHT22;21637;53.352;-6.356;2023-02-02T01:16:20;9.40;99.90
35531;DHT22;21637;53.352;-6.356;2023-02-02T01:18:49;9.50;99.90
35531;DHT22;21637;53.352;-6.356;2023-02-02T01:21:15;9.50;99.90
35531;DHT22;21637;53.352;-6.356;2023-02-02T01:23:41;9.50;99.90
35531;DHT22;21637;53.352;-6.356;2023-02-02T01:26:09;9.50;99.90
35531;DHT22;21637;53.352;-6.356;2023-02-02T01:28:35;9.50;99.90
35531;DHT22;21637;53.352;-6.356;2023-02-02T01:31:04;9.50;99.90
35531;DHT22;21637;53.352;-6.356;2023-02-02T01:33:30;9.60;99.90
35531;DHT22;21637;53.352;-6.356;2023-02-02T01:35:56;9.60;99.90
35531;DHT22;21637;53.352;-6.356;2023-02-02T01:38:22;9.60;99.90
35531;DHT22;21637;53.352;-6.356;2023-02-02T01:40:51;9.60;99.90
35531;DHT22;21637;53.352;-6.356;2023-02-02T01:45:46;9.50;99.90
35531;DHT22;21637;53.352;-6.356;2023-02-02T01:48:12;9.50;99.90
35531;DHT22;21637;53.352;-6.356;2023-02-02T01:50:37;9.60;99.90
35531;DHT22;21637;53.352;-6.356;2023-02-02T01:53:03;9.60;99.90
35531;DHT22;21637;53.352;-6.356;2023-02-02T01:55:31;9.60;99.90
35531;DHT22;21637;53.352;-6.356;2023-02-02T02:00:55;9.60;99.90
35531;DHT22;21637;53.352;-6.356;2023-02-02T02:03:21;9.60;99.90
35531;DHT22;21637;53.352;-6.356;2023-02-02T02:05:50;9.60;99.90
35531;DHT22;21637;53.352;-6.356;2023-02-02T02:08:17;9.60;99.90
35531;DHT22;21637;53.352;-6.356;2023-02-02T02:10:44;9.60;99.90
35531;DHT22;21637;53.352;-6.356;2023-02-02T02:13:10;9.60;99.90
35531;DHT22;21637;53.352;-6.356;2023-02-02T02:16:00;9.60;99.90
35531;DHT22;21637;53.352;-6.356;2023-02-02T02:32:12;9.60;99.90
35531;DHT22;21637;53.352;-6.356;2023-02-02T02:39:41;9.50;99.90
35531;DHT22;21637;53.352;-6.356;2023-02-02T02:42:11;9.40;99.90
35531;DHT22;21637;53.352;-6.356;2023-02-02T02:44:37;9.50;99.90
35531;DHT22;21637;53.352;-6.356;2023-02-02T02:47:03;9.40;99.90
35531;DHT22;21637;53.352;-6.356;2023-02-02T02:49:29;9.40;99.90
35531;DHT22;21637;53.352;-6.356;2023-02-02T02:51:55;9.50;99.90
35531;DHT22;21637;53.352;-6.356;2023-02-02T02:54:30;9.50;99.90
35531;DHT22;21637;53.352;-6.356;2023-02-02T03:07:27;9.60;99.90
35531;DHT22;21637;53.352;-6.356;2023-02-02T03:09:54;9.60;99.90
35531;DHT22;21637;53.352;-6.356;2023-02-02T03:12:22;9.50;99.90
35531;DHT22;21637;53.352;-6.356;2023-02-02T03:14:48;9.60;99.90
35531;DHT22;21637;53.352;-6.356;2023-02-02T03:17:14;9.60;99.90
35531;DHT22;21637;53.352;-6.356;2023-02-02T03:19:39;9.60;99.90
35531;DHT22;21637;53.352;-6.356;2023-02-02T03:22:05;9.60;99.90
35531;DHT22;21637;53.352;-6.356;2023-02-02T03:24:30;9.60;99.90
35531;DHT22;21637;53.352;-6.356;2023-02-02T03:26:56;9.60;99.90
35531;DHT22;21637;53.352;-6.356;2023-02-02T03:29:21;9.60;99.90
35531;DHT22;21637;53.352;-6.356;2023-02-02T03:31:47;9.60;99.90
35531;DHT22;21637;53.352;-6.356;2023-02-02T03:34:13;9.60;99.90
35531;DHT22;21637;53.352;-6.356;2023-02-02T03:36:38;9.60;99.90
35531;DHT22;21637;53.352;-6.356;2023-02-02T03:39:04;9.60;99.90
35531;DHT22;21637;53.352;-6.356;2023-02-02T03:41:29;9.60;99.90
35531;DHT22;21637;53.352;-6.356;2023-02-02T03:43:55;9.60;99.90
35531;DHT22;21637;53.352;-6.356;2023-02-02T03:46:20;9.50;99.90
35531;DHT22;21637;53.352;-6.356;2023-02-02T03:48:46;9.60;99.90
35531;DHT22;21637;53.352;-6.356;2023-02-02T03:51:12;9.50;99.90
35531;DHT22;21637;53.352;-6.356;2023-02-02T03:53:39;9.50;99.90
35531;DHT22;21637;53.352;-6.356;2023-02-02T03:56:05;9.50;99.90
35531;DHT22;21637;53.352;-6.356;2023-02-02T03:58:30;9.50;99.90
35531;DHT22;21637;53.352;-6.356;2023-02-02T04:01:06;9.50;99.90
35531;DHT22;21637;53.352;-6.356;2023-02-02T04:03:32;9.50;99.90
35531;DHT22;21637;53.352;-6.356;2023-02-02T04:05:58;9.50;99.90
35531;DHT22;21637;53.352;-6.356;2023-02-02T04:08:24;9.50;99.90
35531;DHT22;21637;53.352;-6.356;2023-02-02T04:10:49;9.50;99.90
35531;DHT22;21637;53.352;-6.356;2023-02-02T04:13:15;9.50;99.90
35531;DHT22;21637;53.352;-6.356;2023-02-02T04:15:40;9.50;99.90
35531;DHT22;21637;53.352;-6.356;2023-02-02T04:18:06;9.60;99.90
35531;DHT22;21637;53.352;-6.356;2023-02-02T04:20:31;9.50;99.90
35531;DHT22;21637;53.352;-6.356;2023-02-02T04:22:57;9.60;99.90
35531;DHT22;21637;53.352;-6.356;2023-02-02T04:25:22;9.60;99.90
35531;DHT22;21637;53.352;-6.356;2023-02-02T04:27:48;9.60;99.90
35531;DHT22;21637;53.352;-6.356;2023-02-02T04:30:13;9.60;99.90
35531;DHT22;21637;53.352;-6.356;2023-02-02T04:32:39;9.60;99.90
35531;DHT22;21637;53.352;-6.356;2023-02-02T04:35:05;9.60;99.90
35531;DHT22;21637;53.352;-6.356;2023-02-02T04:37:30;9.60;99.90
35531;DHT22;21637;53.352;-6.356;2023-02-02T04:39:56;9.60;99.90
35531;DHT22;21637;53.352;-6.356;2023-02-02T04:42:22;9.60;99.90
35531;DHT22;21637;53.352;-6.356;2023-02-02T04:44:48;9.60;99.90
35531;DHT22;21637;53.352;-6.356;2023-02-02T04:47:13;9.60;99.90
35531;DHT22;21637;53.352;-6.356;2023-02-02T04:49:39;9.70;99.90
35531;DHT22;21637;53.352;-6.356;2023-02-02T04:52:04;9.70;99.90
35531;DHT22;21637;53.352;-6.356;2023-02-02T04:54:31;9.70;99.90
35531;DHT22;21637;53.352;-6.356;2023-02-02T04:56:56;9.70;99.90
35531;DHT22;21637;53.352;-6.356;2023-02-02T04:59:22;9.70;99.90
35531;DHT22;21637;53.352;-6.356;2023-02-02T05:01:47;9.70;99.90
35531;DHT22;21637;53.352;-6.356;2023-02-02T05:04:15;9.70;99.90
35531;DHT22;21637;53.352;-6.356;2023-02-02T05:06:40;9.80;99.90
35531;DHT22;21637;53.352;-6.356;2023-02-02T05:09:06;9.80;99.90
35531;DHT22;21637;53.352;-6.356;2023-02-02T05:11:31;9.80;99.90
35531;DHT22;21637;53.352;-6.356;2023-02-02T05:13:57;9.80;99.90
35531;DHT22;21637;53.352;-6.356;2023-02-02T05:16:23;9.80;99.90
35531;DHT22;21637;53.352;-6.356;2023-02-02T05:18:49;9.70;99.90
35531;DHT22;21637;53.352;-6.356;2023-02-02T05:21:15;9.70;99.90
35531;DHT22;21637;53.352;-6.356;2023-02-02T05:23:41;9.70;99.90
35531;DHT22;21637;53.352;-6.356;2023-02-02T05:26:08;9.70;99.90
35531;DHT22;21637;53.352;-6.356;2023-02-02T05:28:36;9.70;99.90
35531;DHT22;21637;53.352;-6.356;2023-02-02T05:31:04;9.70;99.90
35531;DHT22;21637;53.352;-6.356;2023-02-02T05:33:31;9.70;99.90
35531;DHT22;21637;53.352;-6.356;2023-02-02T05:35:56;9.60;99.90
35531;DHT22;21637;53.352;-6.356;2023-02-02T05:38:22;9.60;99.90
35531;DHT22;21637;53.352;-6.356;2023-02-02T05:40:48;9.60;99.90
35531;DHT22;21637;53.352;-6.356;2023-02-02T05:43:13;9.70;99.90
35531;DHT22;21637;53.352;-6.356;2023-02-02T05:45:39;9.70;99.90
35531;DHT22;21637;53.352;-6.356;2023-02-02T05:48:04;9.70;99.90
35531;DHT22;21637;53.352;-6.356;2023-02-02T05:50:30;9.70;99.90
35531;DHT22;21637;53.352;-6.356;2023-02-02T05:52:56;9.70;99.90
35531;DHT22;21637;53.352;-6.356;2023-02-02T05:55:22;9.80;99.90
35531;DHT22;21637;53.352;-6.356;2023-02-02T05:57:48;9.80;99.90
35531;DHT22;21637;53.352;-6.356;2023-02-02T06:00:13;9.70;99.90
35531;DHT22;21637;53.352;-6.356;2023-02-02T06:02:39;9.70;99.90
35531;DHT22;21637;53.352;-6.356;2023-02-02T06:05:05;9.70;99.90
35531;DHT22;21637;53.352;-6.356;2023-02-02T06:07:30;9.70;99.90
35531;DHT22;21637;53.352;-6.356;2023-02-02T06:09:56;9.60;99.90
35531;DHT22;21637;53.352;-6.356;2023-02-02T06:12:22;9.60;99.90
35531;DHT22;21637;53.352;-6.356;2023-02-02T06:14:48;9.70;99.90
35531;DHT22;21637;53.352;-6.356;2023-02-02T06:17:13;9.70;99.90
35531;DHT22;21637;53.352;-6.356;2023-02-02T06:19:39;9.70;99.90
35531;DHT22;21637;53.352;-6.356;2023-02-02T06:22:04;9.70;99.90
35531;DHT22;21637;53.352;-6.356;2023-02-02T06:24:31;9.70;99.90
35531;DHT22;21637;53.352;-6.356;2023-02-02T06:26:56;9.70;99.90
35531;DHT22;21637;53.352;-6.356;2023-02-02T06:29:22;9.60;99.90
35531;DHT22;21637;53.352;-6.356;2023-02-02T06:31:47;9.60;99.90
35531;DHT22;21637;53.352;-6.356;2023-02-02T06:34:13;9.60;99.90
35531;DHT22;21637;53.352;-6.356;2023-02-02T06:36:39;9.60;99.90
35531;DHT22;21637;53.352;-6.356;2023-02-02T06:39:05;9.60;99.90
35531;DHT22;21637;53.352;-6.356;2023-02-02T06:41:35;9.50;99.90
35531;DHT22;21637;53.352;-6.356;2023-02-02T06:44:01;9.40;99.90
35531;DHT22;21637;53.352;-6.356;2023-02-02T06:46:26;9.40;99.90
35531;DHT22;21637;53.352;-6.356;2023-02-02T06:48:52;9.40;99.90
35531;DHT22;21637;53.352;-6.356;2023-02-02T06:51:18;9.30;99.90
35531;DHT22;21637;53.352;-6.356;2023-02-02T06:53:45;9.30;99.90
35531;DHT22;21637;53.352;-6.356;2023-02-02T06:56:11;9.20;99.90
35531;DHT22;21637;53.352;-6.356;2023-02-02T06:58:37;9.20;99.90
35531;DHT22;21637;53.352;-6.356;2023-02-02T07:01:04;9.20;99.90
35531;DHT22;21637;53.352;-6.356;2023-02-02T07:03:30;9.20;99.90
35531;DHT22;21637;53.352;-6.356;2023-02-02T07:05:55;9.20;99.90
35531;DHT22;21637;53.352;-6.356;2023-02-02T07:08:21;9.30;99.90
35531;DHT22;21637;53.352;-6.356;2023-02-02T07:10:46;9.30;99.90
35531;DHT22;21637;53.352;-6.356;2023-02-02T07:13:12;9.30;99.90
35531;DHT22;21637;53.352;-6.356;2023-02-02T07:15:38;9.30;99.90
35531;DHT22;21637;53.352;-6.356;2023-02-02T07:18:04;9.20;99.90
35531;DHT22;21637;53.352;-6.356;2023-02-02T07:20:30;9.20;99.90
35531;DHT22;21637;53.352;-6.356;2023-02-02T07:22:55;9.20;99.90
35531;DHT22;21637;53.352;-6.356;2023-02-02T07:25:21;9.20;99.90
35531;DHT22;21637;53.352;-6.356;2023-02-02T07:27:48;9.20;99.90
35531;DHT22;21637;53.352;-6.356;2023-02-02T07:30:16;9.20;99.90
35531;DHT22;21637;53.352;-6.356;2023-02-02T07:32:45;9.20;99.90
35531;DHT22;21637;53.352;-6.356;2023-02-02T07:35:11;9.20;99.90
35531;DHT22;21637;53.352;-6.356;2023-02-02T07:37:36;9.20;99.90
35531;DHT22;21637;53.352;-6.356;2023-02-02T07:40:02;9.30;99.90
35531;DHT22;21637;53.352;-6.356;2023-02-02T07:42:28;9.30;99.90
35531;DHT22;21637;53.352;-6.356;2023-02-02T07:44:53;9.40;99.90
35531;DHT22;21637;53.352;-6.356;2023-02-02T07:47:19;9.40;99.90
35531;DHT22;21637;53.352;-6.356;2023-02-02T07:49:44;9.50;99.90
35531;DHT22;21637;53.352;-6.356;2023-02-02T07:52:10;9.40;99.90
35531;DHT22;21637;53.352;-6.356;2023-02-02T07:54:36;9.40;99.90
35531;DHT22;21637;53.352;-6.356;2023-02-02T07:57:01;9.40;99.90
35531;DHT22;21637;53.352;-6.356;2023-02-02T07:59:27;9.30;99.90
35531;DHT22;21637;53.352;-6.356;2023-02-02T08:01:52;9.30;99.90
35531;DHT22;21637;53.352;-6.356;2023-02-02T08:04:18;9.40;99.90
35531;DHT22;21637;53.352;-6.356;2023-02-02T08:06:43;9.30;99.90
35531;DHT22;21637;53.352;-6.356;2023-02-02T08:09:09;9.30;99.90
35531;DHT22;21637;53.352;-6.356;2023-02-02T08:11:35;9.30;99.90
35531;DHT22;21637;53.352;-6.356;2023-02-02T08:14:01;9.40;99.90
35531;DHT22;21637;53.352;-6.356;2023-02-02T08:16:28;9.30;99.90
35531;DHT22;21637;53.352;-6.356;2023-02-02T08:18:54;9.40;99.90
35531;DHT22;21637;53.352;-6.356;2023-02-02T08:21:20;9.40;99.90
35531;DHT22;21637;53.352;-6.356;2023-02-02T08:23:46;9.40;99.90
35531;DHT22;21637;53.352;-6.356;2023-02-02T08:26:12;9.40;99.90
35531;DHT22;21637;53.352;-6.356;2023-02-02T08:28:39;9.40;99.90
35531;DHT22;21637;53.352;-6.356;2023-02-02T08:31:24;9.40;99.90
35531;DHT22;21637;53.352;-6.356;2023-02-02T08:33:50;9.40;99.90
35531;DHT22;21637;53.352;-6.356;2023-02-02T08:36:17;9.40;99.90
35531;DHT22;21637;53.352;-6.356;2023-02-02T08:38:43;9.40;99.90
35531;DHT22;21637;53.352;-6.356;2023-02-02T08:41:10;9.50;99.90
35531;DHT22;21637;53.352;-6.356;2023-02-02T08:43:37;9.50;99.90
35531;DHT22;21637;53.352;-6.356;2023-02-02T08:46:03;9.50;99.90
35531;DHT22;21637;53.352;-6.356;2023-02-02T08:48:28;9.50;99.90
35531;DHT22;21637;53.352;-6.356;2023-02-02T08:50:54;9.60;99.90
35531;DHT22;21637;53.352;-6.356;2023-02-02T08:53:20;9.50;99.90
35531;DHT22;21637;53.352;-6.356;2023-02-02T08:55:46;9.60;99.90
35531;DHT22;21637;53.352;-6.356;2023-02-02T08:58:12;9.60;99.90
35531;DHT22;21637;53.352;-6.356;2023-02-02T09:00:37;9.60;99.90
35531;DHT22;21637;53.352;-6.356;2023-02-02T09:03:03;9.70;99.90
35531;DHT22;21637;53.352;-6.356;2023-02-02T09:05:29;9.70;99.90
35531;DHT22;21637;53.352;-6.356;2023-02-02T09:07:54;9.70;99.90
35531;DHT22;21637;53.352;-6.356;2023-02-02T09:10:20;9.80;99.90
35531;DHT22;21637;53.352;-6.356;2023-02-02T09:12:45;9.80;99.90
35531;DHT22;21637;53.352;-6.356;2023-02-02T09:15:11;9.80;99.90
35531;DHT22;21637;53.352;-6.356;2023-02-02T09:17:37;9.80;99.90
35531;DHT22;21637;53.352;-6.356;2023-02-02T09:20:03;9.80;99.90
35531;DHT22;21637;53.352;-6.356;2023-02-02T09:22:29;9.80;99.90
35531;DHT22;21637;53.352;-6.356;2023-02-02T09:24:55;9.80;99.90
35531;DHT22;21637;53.352;-6.356;2023-02-02T09:27:20;9.90;99.90
35531;DHT22;21637;53.352;-6.356;2023-02-02T09:29:46;9.90;99.90
35531;DHT22;21637;53.352;-6.356;2023-02-02T09:32:13;9.90;99.90
35531;DHT22;21637;53.352;-6.356;2023-02-02T09:34:38;10.00;99.90
35531;DHT22;21637;53.352;-6.356;2023-02-02T09:37:04;10.00;99.90
35531;DHT22;21637;53.352;-6.356;2023-02-02T09:39:29;10.00;99.90
35531;DHT22;21637;53.352;-6.356;2023-02-02T09:47:18;10.00;99.90
35531;DHT22;21637;53.352;-6.356;2023-02-02T09:58:23;10.00;99.90
35531;DHT22;21637;53.352;-6.356;2023-02-02T10:00:54;10.00;99.90
35531;DHT22;21637;53.352;-6.356;2023-02-02T10:03:23;10.10;99.90
35531;DHT22;21637;53.352;-6.356;2023-02-02T10:05:51;10.10;99.90
35531;DHT22;21637;53.352;-6.356;2023-02-02T10:08:20;10.10;99.90
35531;DHT22;21637;53.352;-6.356;2023-02-02T10:10:47;10.10;99.90
35531;DHT22;21637;53.352;-6.356;2023-02-02T10:13:18;10.20;99.90
35531;DHT22;21637;53.352;-6.356;2023-02-02T10:15:55;10.20;99.90
35531;DHT22;21637;53.352;-6.356;2023-02-02T10:21:12;10.20;99.90
35531;DHT22;21637;53.352;-6.356;2023-02-02T10:23:40;10.30;99.90
35531;DHT22;21637;53.352;-6.356;2023-02-02T10:31:21;10.40;99.90
35531;DHT22;21637;53.352;-6.356;2023-02-02T10:34:01;10.40;99.90
35531;DHT22;21637;53.352;-6.356;2023-02-02T10:36:37;10.40;99.90
35531;DHT22;21637;53.352;-6.356;2023-02-02T10:39:13;10.30;99.90
35531;DHT22;21637;53.352;-6.356;2023-02-02T10:47:12;10.30;99.90
35531;DHT22;21637;53.352;-6.356;2023-02-02T10:49:40;10.30;99.90
35531;DHT22;21637;53.352;-6.356;2023-02-02T10:54:51;10.20;99.90
35531;DHT22;21637;53.352;-6.356;2023-02-02T10:57:22;10.20;99.90
35531;DHT22;21637;53.352;-6.356;2023-02-02T11:02:30;10.20;99.90
35531;DHT22;21637;53.352;-6.356;2023-02-02T11:04:55;10.20;99.90
35531;DHT22;21637;53.352;-6.356;2023-02-02T11:07:40;10.20;99.90
35531;DHT22;21637;53.352;-6.356;2023-02-02T11:10:05;10.10;99.90
35531;DHT22;21637;53.352;-6.356;2023-02-02T11:12:32;10.10;99.90
35531;DHT22;21637;53.352;-6.356;2023-02-02T11:15:02;10.10;99.90
35531;DHT22;21637;53.352;-6.356;2023-02-02T11:17:31;10.20;99.90
35531;DHT22;21637;53.352;-6.356;2023-02-02T11:19:58;10.20;99.90
35531;DHT22;21637;53.352;-6.356;2023-02-02T11:22:25;10.20;99.90
35531;DHT22;21637;53.352;-6.356;2023-02-02T11:24:52;10.20;99.90
35531;DHT22;21637;53.352;-6.356;2023-02-02T11:27:37;10.20;99.90
35531;DHT22;21637;53.352;-6.356;2023-02-02T11:32:48;10.30;99.90
35531;DHT22;21637;53.352;-6.356;2023-02-02T11:35:16;10.30;99.90
35531;DHT22;21637;53.352;-6.356;2023-02-02T11:43:33;10.40;99.90
35531;DHT22;21637;53.352;-6.356;2023-02-02T11:46:06;10.50;99.90
35531;DHT22;21637;53.352;-6.356;2023-02-02T11:48:33;10.50;99.90
35531;DHT22;21637;53.352;-6.356;2023-02-02T11:51:00;10.60;99.90
35531;DHT22;21637;53.352;-6.356;2023-02-02T11:55:55;10.70;99.90
35531;DHT22;21637;53.352;-6.356;2023-02-02T11:58:23;10.70;99.90
35531;DHT22;21637;53.352;-6.356;2023-02-02T12:01:01;10.80;99.90
35531;DHT22;21637;53.352;-6.356;2023-02-02T12:05:56;10.80;99.90
35531;DHT22;21637;53.352;-6.356;2023-02-02T12:08:22;10.80;99.90
35531;DHT22;21637;53.352;-6.356;2023-02-02T12:10:57;10.80;99.90
35531;DHT22;21637;53.352;-6.356;2023-02-02T12:13:30;10.80;99.90
35531;DHT22;21637;53.352;-6.356;2023-02-02T12:24:08;10.90;99.90
35531;DHT22;21637;53.352;-6.356;2023-02-02T12:26:36;10.90;99.90
35531;DHT22;21637;53.352;-6.356;2023-02-02T12:29:21;11.00;99.90
35531;DHT22;21637;53.352;-6.356;2023-02-02T12:39:59;11.00;99.90
35531;DHT22;21637;53.352;-6.356;2023-02-02T12:44:58;10.90;99.90
35531;DHT22;21637;53.352;-6.356;2023-02-02T12:57:55;10.80;99.90
35531;DHT22;21637;53.352;-6.356;2023-02-02T13:00:34;10.80;99.90
35531;DHT22;21637;53.352;-6.356;2023-02-02T13:10:39;11.10;99.90
35531;DHT22;21637;53.352;-6.356;2023-02-02T13:13:15;11.10;99.90
35531;DHT22;21637;53.352;-6.356;2023-02-02T13:16:04;11.10;99.90
35531;DHT22;21637;53.352;-6.356;2023-02-02T13:18:29;11.10;99.90
35531;DHT22;21637;53.352;-6.356;2023-02-02T13:20:59;11.10;99.90
35531;DHT22;21637;53.352;-6.356;2023-02-02T13:23:27;11.10;99.90
35531;DHT22;21637;53.352;-6.356;2023-02-02T13:26:00;11.10;99.90
35531;DHT22;21637;53.352;-6.356;2023-02-02T13:30:51;11.10;99.90
35531;DHT22;21637;53.352;-6.356;2023-02-02T13:33:22;11.10;99.90
35531;DHT22;21637;53.352;-6.356;2023-02-02T13:35:56;11.20;99.90
35531;DHT22;21637;53.352;-6.356;2023-02-02T13:38:24;11.20;99.90
35531;DHT22;21637;53.352;-6.356;2023-02-02T13:40:52;11.30;99.90
35531;DHT22;21637;53.352;-6.356;2023-02-02T13:46:11;11.30;99.90
35531;DHT22;21637;53.352;-6.356;2023-02-02T14:01:15;11.20;99.90
35531;DHT22;21637;53.352;-6.356;2023-02-02T14:04:02;11.20;99.90
35531;DHT22;21637;53.352;-6.356;2023-02-02T14:06:34;11.20;99.90
35531;DHT22;21637;53.352;-6.356;2023-02-02T14:09:15;11.10;99.90
35531;DHT22;21637;53.352;-6.356;2023-02-02T14:11:43;11.10;99.90
35531;DHT22;21637;53.352;-6.356;2023-02-02T14:14:17;11.10;99.90
35531;DHT22;21637;53.352;-6.356;2023-02-02T14:29:34;11.20;99.90
35531;DHT22;21637;53.352;-6.356;2023-02-02T14:34:45;11.10;99.90
35531;DHT22;21637;53.352;-6.356;2023-02-02T14:50:13;10.70;99.90
35531;DHT22;21637;53.352;-6.356;2023-02-02T14:52:40;10.60;99.90
35531;DHT22;21637;53.352;-6.356;2023-02-02T14:55:15;10.60;99.90
35531;DHT22;21637;53.352;-6.356;2023-02-02T14:57:41;10.50;99.90
35531;DHT22;21637;53.352;-6.356;2023-02-02T15:00:29;10.40;99.90
35531;DHT22;21637;53.352;-6.356;2023-02-02T15:02:52;10.40;99.90
35531;DHT22;21637;53.352;-6.356;2023-02-02T15:07:54;10.40;99.90
35531;DHT22;21637;53.352;-6.356;2023-02-02T15:13:11;10.40;99.90
35531;DHT22;21637;53.352;-6.356;2023-02-02T15:15:40;10.50;99.90
35531;DHT22;21637;53.352;-6.356;2023-02-02T15:18:52;10.50;99.90
35531;DHT22;21637;53.352;-6.356;2023-02-02T15:20:58;10.50;99.90
35531;DHT22;21637;53.352;-6.356;2023-02-02T15:23:26;10.60;99.90
35531;DHT22;21637;53.352;-6.356;2023-02-02T15:28:42;10.60;99.90
35531;DHT22;21637;53.352;-6.356;2023-02-02T15:33:36;10.70;99.90
35531;DHT22;21637;53.352;-6.356;2023-02-02T15:36:05;10.70;99.90
35531;DHT22;21637;53.352;-6.356;2023-02-02T15:38:34;10.80;99.90
35531;DHT22;21637;53.352;-6.356;2023-02-02T15:41:23;10.80;99.90
35531;DHT22;21637;53.352;-6.356;2023-02-02T15:43:47;10.80;99.90
35531;DHT22;21637;53.352;-6.356;2023-02-02T15:46:14;10.80;99.90
35531;DHT22;21637;53.352;-6.356;2023-02-02T15:49:12;10.80;99.90
35531;DHT22;21637;53.352;-6.356;2023-02-02T15:51:33;10.80;99.90
35531;DHT22;21637;53.352;-6.356;2023-02-02T15:53:59;10.90;99.90
35531;DHT22;21637;53.352;-6.356;2023-02-02T15:58:51;10.80;99.90
35531;DHT22;21637;53.352;-6.356;2023-02-02T16:01:18;10.80;99.90
35531;DHT22;21637;53.352;-6.356;2023-02-02T16:03:47;10.80;99.90
35531;DHT22;21637;53.352;-6.356;2023-02-02T16:06:14;10.80;99.90
35531;DHT22;21637;53.352;-6.356;2023-02-02T16:08:41;10.70;99.90
35531;DHT22;21637;53.352;-6.356;2023-02-02T16:11:08;10.80;99.90
35531;DHT22;21637;53.352;-6.356;2023-02-02T16:13:34;10.80;99.90
35531;DHT22;21637;53.352;-6.356;2023-02-02T16:16:01;10.80;99.90
35531;DHT22;21637;53.352;-6.356;2023-02-02T16:18:28;10.80;99.90
35531;DHT22;21637;53.352;-6.356;2023-02-02T16:20:53;10.80;99.90
35531;DHT22;21637;53.352;-6.356;2023-02-02T16:23:29;10.70;99.90
35531;DHT22;21637;53.352;-6.356;2023-02-02T16:25:57;10.70;99.90
35531;DHT22;21637;53.352;-6.356;2023-02-02T16:28:23;10.70;99.90
35531;DHT22;21637;53.352;-6.356;2023-02-02T16:30:49;10.70;99.90
35531;DHT22;21637;53.352;-6.356;2023-02-02T16:33:35;10.70;99.90
35531;DHT22;21637;53.352;-6.356;2023-02-02T16:36:02;10.70;99.90
35531;DHT22;21637;53.352;-6.356;2023-02-02T16:41:00;10.80;99.90
35531;DHT22;21637;53.352;-6.356;2023-02-02T16:43:26;10.80;99.90
35531;DHT22;21637;53.352;-6.356;2023-02-02T16:45:53;10.80;99.90
35531;DHT22;21637;53.352;-6.356;2023-02-02T16:48:33;10.70;99.90
35531;DHT22;21637;53.352;-6.356;2023-02-02T16:53:33;10.70;99.90
35531;DHT22;21637;53.352;-6.356;2023-02-02T16:55:59;10.70;99.90
35531;DHT22;21637;53.352;-6.356;2023-02-02T16:58:25;10.70;99.90
35531;DHT22;21637;53.352;-6.356;2023-02-02T17:00:54;10.60;99.90
35531;DHT22;21637;53.352;-6.356;2023-02-02T17:03:21;10.60;99.90
35531;DHT22;21637;53.352;-6.356;2023-02-02T17:05:50;10.50;99.90
35531;DHT22;21637;53.352;-6.356;2023-02-02T17:08:39;10.50;99.90
35531;DHT22;21637;53.352;-6.356;2023-02-02T17:11:04;10.40;99.90
35531;DHT22;21637;53.352;-6.356;2023-02-02T17:16:00;10.40;99.90
35531;DHT22;21637;53.352;-6.356;2023-02-02T17:18:26;10.50;99.90
35531;DHT22;21637;53.352;-6.356;2023-02-02T17:20:52;10.50;99.90
35531;DHT22;21637;53.352;-6.356;2023-02-02T17:23:25;10.50;99.90
35531;DHT22;21637;53.352;-6.356;2023-02-02T17:25:52;10.50;99.90
35531;DHT22;21637;53.352;-6.356;2023-02-02T17:28:19;10.50;99.90
35531;DHT22;21637;53.352;-6.356;2023-02-02T17:30:46;10.60;99.90
35531;DHT22;21637;53.352;-6.356;2023-02-02T17:33:14;10.60;99.90
35531;DHT22;21637;53.352;-6.356;2023-02-02T17:35:40;10.60;99.90
35531;DHT22;21637;53.352;-6.356;2023-02-02T17:38:05;10.50;99.90
35531;DHT22;21637;53.352;-6.356;2023-02-02T17:40:31;10.50;99.90
35531;DHT22;21637;53.352;-6.356;2023-02-02T17:42:57;10.40;99.90
35531;DHT22;21637;53.352;-6.356;2023-02-02T17:45:23;10.40;99.90
35531;DHT22;21637;53.352;-6.356;2023-02-02T17:47:52;10.30;99.90
35531;DHT22;21637;53.352;-6.356;2023-02-02T17:50:18;10.30;99.90
35531;DHT22;21637;53.352;-6.356;2023-02-02T17:52:44;10.30;99.90
35531;DHT22;21637;53.352;-6.356;2023-02-02T17:55:22;10.30;99.90
35531;DHT22;21637;53.352;-6.356;2023-02-02T17:57:48;10.30;99.90
35531;DHT22;21637;53.352;-6.356;2023-02-02T18:00:15;10.20;99.90
35531;DHT22;21637;53.352;-6.356;2023-02-02T18:02:41;10.30;99.90
35531;DHT22;21637;53.352;-6.356;2023-02-02T18:05:07;10.20;99.90
35531;DHT22;21637;53.352;-6.356;2023-02-02T18:07:33;10.20;99.90
35531;DHT22;21637;53.352;-6.356;2023-02-02T18:09:58;10.20;99.90
35531;DHT22;21637;53.352;-6.356;2023-02-02T18:12:24;10.20;99.90
35531;DHT22;21637;53.352;-6.356;2023-02-02T18:14:50;10.30;99.90
35531;DHT22;21637;53.352;-6.356;2023-02-02T18:17:15;10.30;99.90
35531;DHT22;21637;53.352;-6.356;2023-02-02T18:19:41;10.30;99.90
35531;DHT22;21637;53.352;-6.356;2023-02-02T18:22:10;10.40;99.90
35531;DHT22;21637;53.352;-6.356;2023-02-02T18:24:36;10.40;99.90
35531;DHT22;21637;53.352;-6.356;2023-02-02T18:27:01;10.40;99.90
35531;DHT22;21637;53.352;-6.356;2023-02-02T18:29:27;10.40;99.90
35531;DHT22;21637;53.352;-6.356;2023-02-02T18:31:52;10.50;99.90